createdAt,value
2023-03-22T00:02:01.516Z,59.73
2023-03-22T00:04:32.751Z,58.34
2023-03-22T00:07:03.812Z,59.57
2023-03-22T00:09:35.457Z,61.50
2023-03-22T00:12:06.342Z,66.78
2023-03-22T00:14:37.383Z,66.98
2023-03-22T00:17:08.080Z,63.66
2023-03-22T00:19:42.690Z,61.54
2023-03-22T00:22:15.070Z,62.68
2023-03-22T00:24:47.374Z,62.25
2023-03-22T00:27:18.521Z,62.04
2023-03-22T00:29:49.611Z,62.36
2023-03-22T00:32:20.056Z,62.47
2023-03-22T00:34:51.188Z,62.01
2023-03-22T00:37:21.825Z,61.27
2023-03-22T00:39:52.749Z,61.48
2023-03-22T00:42:24.114Z,61.31
2023-03-22T00:44:55.111Z,60.87
2023-03-22T00:47:25.885Z,59.00
2023-03-22T00:49:57.131Z,59.92
2023-03-22T00:52:30.205Z,64.60
2023-03-22T00:55:01.796Z,65.39
2023-03-22T00:57:32.809Z,63.36
2023-03-22T01:00:16.375Z,62.20
2023-03-22T01:02:48.499Z,60.89
2023-03-22T01:05:22.311Z,60.97
2023-03-22T01:07:55.190Z,63.36
2023-03-22T01:10:26.545Z,63.79
2023-03-22T01:12:57.478Z,63.78
2023-03-22T01:15:28.723Z,62.32
2023-03-22T01:17:59.762Z,61.29
2023-03-22T01:20:31.106Z,61.27
2023-03-22T01:23:01.882Z,61.97
2023-03-22T01:25:33.310Z,62.01
2023-03-22T01:28:04.127Z,61.39
2023-03-22T01:30:35.190Z,60.55
2023-03-22T01:33:07.985Z,60.57
2023-03-22T01:35:40.579Z,60.92
2023-03-22T01:38:11.573Z,61.24
2023-03-22T01:40:48.546Z,60.93
2023-03-22T01:43:19.594Z,61.20
2023-03-22T01:45:50.967Z,61.01
2023-03-22T01:48:23.514Z,60.74
2023-03-22T01:50:57.626Z,60.24
2023-03-22T01:53:28.566Z,58.71
2023-03-22T01:56:00.129Z,59.68
2023-03-22T01:58:36.078Z,61.52
2023-03-22T02:01:06.117Z,67.20
2023-03-22T02:03:54.844Z,68.14
2023-03-22T02:06:27.115Z,65.30
2023-03-22T02:09:03.588Z,63.52
2023-03-22T02:11:36.526Z,62.31
2023-03-22T02:14:20.713Z,61.51
2023-03-22T02:17:28.062Z,61.13
2023-03-22T02:20:19.520Z,60.81
2023-03-22T02:23:01.849Z,60.62
2023-03-22T02:25:46.185Z,60.24
2023-03-22T02:28:22.202Z,60.42
2023-03-22T02:31:08.810Z,60.15
2023-03-22T02:33:54.523Z,59.72
2023-03-22T02:36:32.078Z,65.12
2023-03-22T02:39:14.323Z,66.53
2023-03-22T02:41:59.605Z,65.38
2023-03-22T02:44:34.736Z,64.04
2023-03-22T02:47:06.503Z,62.98
2023-03-22T02:49:39.162Z,63.69
2023-03-22T02:52:10.571Z,63.92
2023-03-22T02:54:44.823Z,62.88
2023-03-22T02:57:18.241Z,62.68
2023-03-22T02:59:50.701Z,62.19
2023-03-22T03:02:23.454Z,61.15
2023-03-22T03:04:55.406Z,60.58
2023-03-22T03:07:28.957Z,60.63
2023-03-22T03:10:00.830Z,60.51
2023-03-22T03:12:32.145Z,58.68
2023-03-22T03:15:03.979Z,58.54
2023-03-22T03:17:40.039Z,63.99
2023-03-22T03:20:19.797Z,64.56
2023-03-22T03:22:56.381Z,64.12
2023-03-22T03:25:31.849Z,64.50
2023-03-22T03:28:06.419Z,64.63
2023-03-22T03:30:41.127Z,64.16
2023-03-22T03:33:17.233Z,63.21
2023-03-22T03:35:50.425Z,62.97
2023-03-22T03:38:22.900Z,62.99
2023-03-22T03:40:56.932Z,61.63
2023-03-22T03:43:28.907Z,61.26
2023-03-22T03:46:01.276Z,61.64
2023-03-22T03:48:34.025Z,60.76
2023-03-22T03:51:05.594Z,61.24
2023-03-22T03:53:36.320Z,61.45
2023-03-22T03:56:08.300Z,60.89
2023-03-22T03:58:42.496Z,60.32
2023-03-22T04:01:13.750Z,60.61
2023-03-22T04:04:07.269Z,59.90
2023-03-22T04:06:52.211Z,59.43
2023-03-22T04:09:27.272Z,59.68
2023-03-22T04:12:00.264Z,64.39
2023-03-22T04:14:31.024Z,66.93
2023-03-22T04:17:03.602Z,65.40
2023-03-22T04:19:34.336Z,64.50
2023-03-22T04:22:05.175Z,64.02
2023-03-22T04:24:38.460Z,63.62
2023-03-22T04:27:09.835Z,63.59
2023-03-22T04:29:51.704Z,63.04
2023-03-22T04:32:49.364Z,62.45
2023-03-22T04:35:21.998Z,62.03
2023-03-22T04:37:53.840Z,61.67
2023-03-22T04:40:26.991Z,61.16
2023-03-22T04:43:06.839Z,61.17
2023-03-22T04:45:49.768Z,60.93
2023-03-22T04:48:28.214Z,61.02
2023-03-22T04:51:04.488Z,61.08
2023-03-22T04:53:40.133Z,61.32
2023-03-22T04:56:13.189Z,60.92
2023-03-22T04:58:45.642Z,60.48
2023-03-22T05:01:18.397Z,60.88
2023-03-22T05:03:50.658Z,60.81
2023-03-22T05:06:24.617Z,60.81
2023-03-22T05:09:20.444Z,60.83
2023-03-22T05:11:55.069Z,60.34
2023-03-22T05:14:42.532Z,60.95
2023-03-22T05:17:14.154Z,59.76
2023-03-22T05:19:45.907Z,59.45
2023-03-22T05:22:17.156Z,63.29
2023-03-22T05:24:50.476Z,65.29
2023-03-22T05:27:31.683Z,62.87
2023-03-22T05:30:21.213Z,63.26
2023-03-22T05:33:06.040Z,63.90
2023-03-22T05:35:41.778Z,64.00
2023-03-22T05:38:12.934Z,63.96
2023-03-22T05:40:48.296Z,63.29
2023-03-22T05:43:18.912Z,63.57
2023-03-22T05:45:51.548Z,63.09
2023-03-22T05:48:45.469Z,62.99
2023-03-22T05:51:19.502Z,63.00
2023-03-22T05:53:53.645Z,62.75
2023-03-22T05:56:32.004Z,62.94
2023-03-22T05:59:09.587Z,62.04
2023-03-22T06:01:40.444Z,61.26
2023-03-22T06:04:37.378Z,61.50
2023-03-22T06:07:14.781Z,61.81
2023-03-22T06:10:09.150Z,61.50
2023-03-22T06:12:40.318Z,61.32
2023-03-22T06:15:18.702Z,61.05
2023-03-22T06:18:02.450Z,61.03
2023-03-22T06:20:36.936Z,60.72
2023-03-22T06:23:12.908Z,60.44
2023-03-22T06:25:45.203Z,60.75
2023-03-22T06:28:16.748Z,60.43
2023-03-22T06:30:53.344Z,59.27
2023-03-22T06:33:34.298Z,58.40
2023-03-22T06:36:10.789Z,62.58
2023-03-22T06:39:06.584Z,66.32
2023-03-22T06:41:37.744Z,65.49
2023-03-22T06:44:09.490Z,63.92
2023-03-22T06:46:55.676Z,63.06
2023-03-22T06:49:45.955Z,62.43
2023-03-22T06:52:24.788Z,61.90
2023-03-22T06:54:56.955Z,61.28
2023-03-22T06:57:28.772Z,60.72
2023-03-22T06:59:59.548Z,60.40
2023-03-22T07:02:30.883Z,60.83
2023-03-22T07:05:15.833Z,60.29
2023-03-22T07:07:47.017Z,58.97
2023-03-22T07:10:18.369Z,60.47
2023-03-22T07:12:49.620Z,64.14
2023-03-22T07:15:24.509Z,65.19
2023-03-22T07:18:03.991Z,62.98
2023-03-22T07:20:37.272Z,61.47
2023-03-22T07:23:09.145Z,60.37
2023-03-22T07:25:44.260Z,59.92
2023-03-22T07:28:28.328Z,59.35
2023-03-22T07:31:03.406Z,61.84
2023-03-22T07:33:38.997Z,63.87
2023-03-22T07:36:11.248Z,61.72
2023-03-22T07:38:42.453Z,61.04
2023-03-22T07:41:17.125Z,59.55
2023-03-22T07:44:07.922Z,58.37
2023-03-22T07:46:52.566Z,61.87
2023-03-22T07:49:31.348Z,65.34
2023-03-22T07:52:12.101Z,64.03
2023-03-22T07:54:44.050Z,62.38
2023-03-22T07:57:15.621Z,59.05
2023-03-22T07:59:58.125Z,58.95
2023-03-22T08:02:32.013Z,62.77
2023-03-22T08:05:04.381Z,62.20
2023-03-22T08:07:41.467Z,61.84
2023-03-22T08:10:13.859Z,60.26
2023-03-22T08:12:45.093Z,58.60
2023-03-22T08:15:26.578Z,57.50
2023-03-22T08:17:59.248Z,62.12
2023-03-22T08:20:38.693Z,62.98
2023-03-22T08:23:16.409Z,62.20
2023-03-22T08:25:47.221Z,60.14
2023-03-22T08:28:19.924Z,56.47
2023-03-22T08:30:51.075Z,55.67
2023-03-22T08:33:23.791Z,61.19
2023-03-22T08:36:05.414Z,62.84
2023-03-22T08:38:36.857Z,62.09
2023-03-22T08:41:10.405Z,59.39
2023-03-22T08:43:41.306Z,60.11
2023-03-22T08:46:12.796Z,61.92
2023-03-22T08:48:50.564Z,62.27
2023-03-22T08:51:32.819Z,58.18
2023-03-22T08:54:15.390Z,56.67
2023-03-22T08:57:05.232Z,59.37
2023-03-22T08:59:57.736Z,61.80
2023-03-22T09:02:36.087Z,58.37
2023-03-22T09:05:08.455Z,58.42
2023-03-22T09:07:39.599Z,58.80
2023-03-22T09:10:16.940Z,58.89
2023-03-22T09:12:48.444Z,60.52
2023-03-22T09:15:20.199Z,63.61
2023-03-22T09:17:56.149Z,64.59
2023-03-22T09:20:27.448Z,61.08
2023-03-22T09:22:58.884Z,57.94
2023-03-22T09:25:30.679Z,58.77
2023-03-22T09:28:02.275Z,59.53
2023-03-22T09:30:33.296Z,61.68
2023-03-22T09:33:04.746Z,63.44
2023-03-22T09:35:35.843Z,62.49
2023-03-22T09:38:10.921Z,60.07
2023-03-22T09:40:48.011Z,55.96
2023-03-22T09:43:19.972Z,57.04
2023-03-22T09:45:50.049Z,58.34
2023-03-22T09:48:22.883Z,61.19
2023-03-22T09:50:54.742Z,62.34
2023-03-22T09:53:28.672Z,62.43
2023-03-22T09:56:03.173Z,57.17
2023-03-22T09:58:35.176Z,58.06
2023-03-22T10:01:07.829Z,59.75
2023-03-22T10:03:57.411Z,60.81
2023-03-22T10:06:29.597Z,58.74
2023-03-22T10:09:05.397Z,61.22
2023-03-22T10:11:40.540Z,60.05
2023-03-22T10:14:18.536Z,56.83
2023-03-22T10:16:49.982Z,58.03
2023-03-22T10:19:22.861Z,59.05
2023-03-22T10:21:55.533Z,59.77
2023-03-22T10:24:28.885Z,60.80
2023-03-22T10:26:59.813Z,61.70
2023-03-22T10:29:33.944Z,61.13
2023-03-22T10:32:14.250Z,60.04
2023-03-22T10:34:46.809Z,60.39
2023-03-22T10:37:18.679Z,61.13
2023-03-22T10:39:51.562Z,61.69
2023-03-22T10:42:20.806Z,62.64
2023-03-22T10:44:52.891Z,60.73
2023-03-22T10:47:28.351Z,56.23
2023-03-22T10:50:03.434Z,54.52
2023-03-22T10:52:39.680Z,55.84
2023-03-22T10:55:14.316Z,56.10
2023-03-22T10:57:50.160Z,56.79
2023-03-22T11:00:22.574Z,58.09
2023-03-22T11:02:54.725Z,57.34
2023-03-22T11:05:27.581Z,58.08
2023-03-22T11:07:57.787Z,56.92
2023-03-22T11:10:30.180Z,57.12
2023-03-22T11:13:14.424Z,56.28
2023-03-22T11:15:51.502Z,56.81
2023-03-22T11:18:22.329Z,57.05
2023-03-22T11:20:59.001Z,55.81
2023-03-22T11:23:32.578Z,57.13
2023-03-22T11:26:07.157Z,55.49
2023-03-22T11:28:38.524Z,56.11
2023-03-22T11:31:11.064Z,55.15
2023-03-22T11:33:46.508Z,55.26
2023-03-22T11:36:19.794Z,54.99
2023-03-22T11:38:57.809Z,54.81
2023-03-22T11:41:30.399Z,55.47
2023-03-22T11:44:02.948Z,54.76
2023-03-22T11:46:35.886Z,55.47
2023-03-22T11:49:08.672Z,54.61
2023-03-22T11:51:40.990Z,54.33
2023-03-22T11:54:16.230Z,53.99
2023-03-22T11:56:49.936Z,52.35
2023-03-22T11:59:26.626Z,52.51
2023-03-22T12:02:00.309Z,53.90
2023-03-22T12:04:32.649Z,52.16
2023-03-22T12:07:07.089Z,52.82
2023-03-22T12:09:41.368Z,51.52
2023-03-22T12:12:14.396Z,51.34
2023-03-22T12:14:48.303Z,51.61
2023-03-22T12:17:24.861Z,52.59
2023-03-22T12:19:59.320Z,51.42
2023-03-22T12:22:32.943Z,51.78
2023-03-22T12:25:03.910Z,51.30
2023-03-22T12:27:37.944Z,51.69
2023-03-22T12:30:13.636Z,52.55
2023-03-22T12:32:46.638Z,52.01
2023-03-22T12:35:21.919Z,52.24
2023-03-22T12:37:55.492Z,53.15
2023-03-22T12:40:28.109Z,53.42
2023-03-22T12:43:04.469Z,52.38
2023-03-22T12:45:37.540Z,52.48
2023-03-22T12:48:14.841Z,51.73
2023-03-22T12:50:48.353Z,50.13
2023-03-22T12:53:20.208Z,50.58
2023-03-22T12:55:51.131Z,50.53
2023-03-22T12:58:23.857Z,50.66
2023-03-22T13:00:58.184Z,51.60
2023-03-22T13:03:31.870Z,49.78
2023-03-22T13:06:04.833Z,50.47
2023-03-22T13:08:49.475Z,49.99
2023-03-22T13:11:26.414Z,48.10
2023-03-22T13:13:57.322Z,46.98
2023-03-22T13:16:41.790Z,46.08
2023-03-22T13:19:27.337Z,42.06
2023-03-22T13:22:11.890Z,42.31
2023-03-22T13:24:56.491Z,38.80
2023-03-22T13:27:38.102Z,38.28
2023-03-22T13:30:16.643Z,40.48
2023-03-22T13:32:52.517Z,42.63
2023-03-22T13:35:28.385Z,40.76
2023-03-22T13:38:04.115Z,40.12
2023-03-22T13:40:37.855Z,40.93
2023-03-22T13:43:26.261Z,42.12
2023-03-22T13:46:03.055Z,41.63
2023-03-22T13:48:42.541Z,42.18
2023-03-22T13:51:15.920Z,41.65
2023-03-22T13:53:55.547Z,41.88
2023-03-22T13:56:48.098Z,41.60
2023-03-22T13:59:21.854Z,41.85
2023-03-22T14:01:55.265Z,41.29
2023-03-22T14:04:30.302Z,40.97
2023-03-22T14:07:08.607Z,41.15
2023-03-22T14:09:45.475Z,40.38
2023-03-22T14:12:20.994Z,39.48
2023-03-22T14:14:53.497Z,40.06
2023-03-22T14:17:30.620Z,39.97
2023-03-22T14:20:01.998Z,39.64
